sensor_id;sensor_type;location;lat;lon;timestamp;pressure;altitude;pressure_sealevel;temperature;humidity
58955;BME280;45815;52.334;5.024;2022-11-04T00:01:42;100037.84;;;11.36;100.00
58955;BME280;45815;52.334;5.024;2022-11-04T00:04:09;100046.59;;;11.35;100.00
58955;BME280;45815;52.334;5.024;2022-11-04T00:06:35;100044.84;;;11.37;100.00
58955;BME280;45815;52.334;5.024;2022-11-04T00:09:02;100039.59;;;11.37;100.00
58955;BME280;45815;52.334;5.024;2022-11-04T00:11:27;100046.59;;;11.35;100.00
58955;BME280;45815;52.334;5.024;2022-11-04T00:14:12;100050.97;;;11.37;100.00
58955;BME280;45815;52.334;5.024;2022-11-04T00:16:38;100047.44;;;11.32;100.00
58955;BME280;45815;52.334;5.024;2022-11-04T00:19:22;100060.59;;;11.31;100.00
58955;BME280;45815;52.334;5.024;2022-11-04T00:21:47;100054.47;;;11.29;100.00
58955;BME280;45815;52.334;5.024;2022-11-04T00:24:32;100057.06;;;11.23;100.00
58955;BME280;45815;52.334;5.024;2022-11-04T00:27:13;100069.31;;;11.24;100.00
58955;BME280;45815;52.334;5.024;2022-11-04T00:29:57;100071.94;;;11.25;100.00
58955;BME280;45815;52.334;5.024;2022-11-04T00:32:23;100076.34;;;11.28;100.00
58955;BME280;45815;52.334;5.024;2022-11-04T00:35:08;100083.38;;;11.29;100.00
58955;BME280;45815;52.334;5.024;2022-11-04T00:37:41;100081.63;;;11.31;100.00
58955;BME280;45815;52.334;5.024;2022-11-04T00:40:09;100091.22;;;11.26;100.00
58955;BME280;45815;52.334;5.024;2022-11-04T00:42:35;100096.47;;;11.26;100.00
58955;BME280;45815;52.334;5.024;2022-11-04T00:45:00;100098.19;;;11.17;100.00
58955;BME280;45815;52.334;5.024;2022-11-04T00:47:26;100085.91;;;11.12;100.00
58955;BME280;45815;52.334;5.024;2022-11-04T00:49:51;100102.59;;;11.17;100.00
58955;BME280;45815;52.334;5.024;2022-11-04T00:52:17;100101.66;;;11.13;100.00
58955;BME280;45815;52.334;5.024;2022-11-04T00:54:43;100110.41;;;11.14;100.00
58955;BME280;45815;52.334;5.024;2022-11-04T00:57:09;100115.66;;;11.08;100.00
58955;BME280;45815;52.334;5.024;2022-11-04T00:59:35;100113.91;;;11.08;100.00
58955;BME280;45815;52.334;5.024;2022-11-04T01:02:00;100120.00;;;11.07;100.00
58955;BME280;45815;52.334;5.024;2022-11-04T01:04:26;100128.75;;;11.02;100.00
58955;BME280;45815;52.334;5.024;2022-11-04T01:06:52;100128.72;;;11.00;100.00
58955;BME280;45815;52.334;5.024;2022-11-04T01:09:17;100128.75;;;10.98;100.00
58955;BME280;45815;52.334;5.024;2022-11-04T01:11:43;100136.56;;;10.95;100.00
58955;BME280;45815;52.334;5.024;2022-11-04T01:14:09;100142.72;;;10.96;100.00
58955;BME280;45815;52.334;5.024;2022-11-04T01:16:34;100151.47;;;10.95;100.00
58955;BME280;45815;52.334;5.024;2022-11-04T01:19:00;100151.47;;;10.95;100.00
58955;BME280;45815;52.334;5.024;2022-11-04T01:21:25;100156.72;;;10.95;100.00
58955;BME280;45815;52.334;5.024;2022-11-04T01:23:50;100157.59;;;10.94;100.00
58955;BME280;45815;52.334;5.024;2022-11-04T01:26:18;100164.56;;;10.92;100.00
58955;BME280;45815;52.334;5.024;2022-11-04T01:28:45;100170.66;;;10.88;100.00
58955;BME280;45815;52.334;5.024;2022-11-04T01:31:15;100167.13;;;10.80;100.00
58955;BME280;45815;52.334;5.024;2022-11-04T01:33:41;100181.16;;;10.85;100.00
58955;BME280;45815;52.334;5.024;2022-11-04T01:36:11;100189.00;;;10.83;100.00
58955;BME280;45815;52.334;5.024;2022-11-04T01:38:36;100188.13;;;10.83;100.00
58955;BME280;45815;52.334;5.024;2022-11-04T01:41:02;100196.03;;;10.84;100.00
58955;BME280;45815;52.334;5.024;2022-11-04T01:43:48;100198.56;;;10.73;100.00
58955;BME280;45815;52.334;5.024;2022-11-04T01:49:13;100199.47;;;10.78;100.00
58955;BME280;45815;52.334;5.024;2022-11-04T01:51:43;100208.25;;;10.81;100.00
58955;BME280;45815;52.334;5.024;2022-11-04T01:54:10;100198.59;;;10.78;100.00
58955;BME280;45815;52.334;5.024;2022-11-04T01:56:38;100210.94;;;10.90;100.00
58955;BME280;45815;52.334;5.024;2022-11-04T01:59:08;100212.72;;;10.94;100.00
58955;BME280;45815;52.334;5.024;2022-11-04T02:01:36;100218.88;;;10.96;100.00
58955;BME280;45815;52.334;5.024;2022-11-04T02:04:02;100212.75;;;10.97;100.00
58955;BME280;45815;52.334;5.024;2022-11-04T02:06:47;100222.38;;;10.99;100.00
58955;BME280;45815;52.334;5.024;2022-11-04T02:09:16;100225.91;;;11.02;100.00
58955;BME280;45815;52.334;5.024;2022-11-04T02:11:42;100234.63;;;10.96;100.00
58955;BME280;45815;52.334;5.024;2022-11-04T02:14:26;100235.47;;;10.89;100.00
58955;BME280;45815;52.334;5.024;2022-11-04T02:16:54;100236.34;;;10.92;100.00
58955;BME280;45815;52.334;5.024;2022-11-04T02:30:35;100258.06;;;10.74;100.00
58955;BME280;45815;52.334;5.024;2022-11-04T02:35:59;100247.53;;;10.68;100.00
58955;BME280;45815;52.334;5.024;2022-11-04T02:38:32;100245.72;;;10.64;100.00
58955;BME280;45815;52.334;5.024;2022-11-04T02:41:17;100249.91;;;10.44;100.00
58955;BME280;45815;52.334;5.024;2022-11-04T02:43:56;100251.72;;;10.49;100.00
58955;BME280;45815;52.334;5.024;2022-11-04T02:46:37;100242.03;;;10.44;100.00
58955;BME280;45815;52.334;5.024;2022-11-04T02:49:19;100253.41;;;10.43;100.00
58955;BME280;45815;52.334;5.024;2022-11-04T02:51:51;100243.75;;;10.42;100.00
58955;BME280;45815;52.334;5.024;2022-11-04T02:54:48;100258.59;;;10.38;100.00
58955;BME280;45815;52.334;5.024;2022-11-04T02:57:19;100266.50;;;10.41;100.00
58955;BME280;45815;52.334;5.024;2022-11-04T02:59:49;100248.97;;;10.35;100.00
58955;BME280;45815;52.334;5.024;2022-11-04T03:02:25;100272.56;;;10.35;100.00
58955;BME280;45815;52.334;5.024;2022-11-04T03:04:54;100273.47;;;10.38;100.00
58955;BME280;45815;52.334;5.024;2022-11-04T03:07:24;100270.78;;;10.34;100.00
58955;BME280;45815;52.334;5.024;2022-11-04T03:09:53;100253.19;;;10.26;100.00
58955;BME280;45815;52.334;5.024;2022-11-04T03:12:24;100273.41;;;10.33;100.00
58955;BME280;45815;52.334;5.024;2022-11-04T03:14:58;100278.63;;;10.31;100.00
58955;BME280;45815;52.334;5.024;2022-11-04T03:17:30;100267.97;;;10.18;100.00
58955;BME280;45815;52.334;5.024;2022-11-04T03:19:58;100287.25;;;10.21;100.00
58955;BME280;45815;52.334;5.024;2022-11-04T03:22:26;100285.44;;;10.17;100.00
58955;BME280;45815;52.334;5.024;2022-11-04T03:24:53;100287.13;;;10.13;100.00
58955;BME280;45815;52.334;5.024;2022-11-04T03:30:19;100294.94;;;10.07;100.00
58955;BME280;45815;52.334;5.024;2022-11-04T03:35:24;100301.03;;;10.06;100.00
58955;BME280;45815;52.334;5.024;2022-11-04T03:37:50;100306.28;;;10.05;100.00
58955;BME280;45815;52.334;5.024;2022-11-04T03:40:16;100306.19;;;9.99;100.00
58955;BME280;45815;52.334;5.024;2022-11-04T03:43:02;100307.88;;;9.93;100.00
58955;BME280;45815;52.334;5.024;2022-11-04T03:45:30;100313.16;;;9.97;100.00
58955;BME280;45815;52.334;5.024;2022-11-04T03:47:56;100307.88;;;9.93;100.00
58955;BME280;45815;52.334;5.024;2022-11-04T03:50:26;100307.84;;;9.90;100.00
58955;BME280;45815;52.334;5.024;2022-11-04T03:52:51;100314.84;;;9.91;100.00
58955;BME280;45815;52.334;5.024;2022-11-04T03:55:17;100317.44;;;9.88;100.00
58955;BME280;45815;52.334;5.024;2022-11-04T03:57:49;100312.03;;;9.78;100.00
58955;BME280;45815;52.334;5.024;2022-11-04T04:00:18;100323.44;;;9.81;100.00
58955;BME280;45815;52.334;5.024;2022-11-04T04:02:58;100326.00;;;9.78;100.00
58955;BME280;45815;52.334;5.024;2022-11-04T04:05:38;100330.31;;;9.73;100.00
58955;BME280;45815;52.334;5.024;2022-11-04T04:08:18;100327.72;;;9.75;100.00
58955;BME280;45815;52.334;5.024;2022-11-04T04:14:17;100325.06;;;9.73;100.00
58955;BME280;45815;52.334;5.024;2022-11-04T04:17:44;100335.50;;;9.70;100.00
58955;BME280;45815;52.334;5.024;2022-11-04T04:20:19;100340.78;;;9.73;100.00
58955;BME280;45815;52.334;5.024;2022-11-04T04:22:51;100350.44;;;9.74;100.00
58955;BME280;45815;52.334;5.024;2022-11-04T04:25:17;100359.16;;;9.76;100.00
58955;BME280;45815;52.334;5.024;2022-11-04T04:28:03;100364.41;;;9.76;100.00
58955;BME280;45815;52.334;5.024;2022-11-04T04:30:29;100353.94;;;9.76;100.00
58955;BME280;45815;52.334;5.024;2022-11-04T04:32:58;100369.78;;;9.85;100.00
58955;BME280;45815;52.334;5.024;2022-11-04T04:35:27;100372.47;;;9.88;100.00
58955;BME280;45815;52.334;5.024;2022-11-04T04:38:23;100375.03;;;9.84;100.00
58955;BME280;45815;52.334;5.024;2022-11-04T04:41:16;100376.81;;;9.88;100.00
58955;BME280;45815;52.334;5.024;2022-11-04T04:44:03;100369.81;;;9.87;100.00
58955;BME280;45815;52.334;5.024;2022-11-04T04:46:54;100373.44;;;9.95;100.00
58955;BME280;45815;52.334;5.024;2022-11-04T04:49:21;100381.34;;;9.98;100.00
58955;BME280;45815;52.334;5.024;2022-11-04T04:51:47;100379.63;;;10.00;100.00
58955;BME280;45815;52.334;5.024;2022-11-04T04:54:13;100383.13;;;10.01;100.00
58955;BME280;45815;52.334;5.024;2022-11-04T04:56:38;100381.44;;;10.06;100.00
58955;BME280;45815;52.334;5.024;2022-11-04T04:59:04;100385.81;;;10.05;100.00
58955;BME280;45815;52.334;5.024;2022-11-04T05:01:29;100388.47;;;10.07;100.00
58955;BME280;45815;52.334;5.024;2022-11-04T05:03:54;100391.09;;;10.08;100.00
58955;BME280;45815;52.334;5.024;2022-11-04T05:06:20;100381.47;;;10.09;100.00
58955;BME280;45815;52.334;5.024;2022-11-04T05:08:45;100380.66;;;10.11;100.00
58955;BME280;45815;52.334;5.024;2022-11-04T05:11:11;100385.06;;;10.14;100.00
58955;BME280;45815;52.334;5.024;2022-11-04T05:13:36;100389.47;;;10.17;100.00
58955;BME280;45815;52.334;5.024;2022-11-04T05:16:07;100392.09;;;10.18;100.00
58955;BME280;45815;52.334;5.024;2022-11-04T05:18:33;100381.56;;;10.15;100.00
58955;BME280;45815;52.334;5.024;2022-11-04T05:21:03;100392.13;;;10.20;100.00
58955;BME280;45815;52.334;5.024;2022-11-04T05:23:28;100405.28;;;10.21;100.00
58955;BME280;45815;52.334;5.024;2022-11-04T05:25:57;100408.75;;;10.22;100.00
58955;BME280;45815;52.334;5.024;2022-11-04T05:28:22;100397.41;;;10.21;100.00
58955;BME280;45815;52.334;5.024;2022-11-04T05:30:47;100401.72;;;10.18;100.00
58955;BME280;45815;52.334;5.024;2022-11-04T05:33:13;100407.88;;;10.21;100.00
58955;BME280;45815;52.334;5.024;2022-11-04T05:35:38;100407.88;;;10.21;100.00
58955;BME280;45815;52.334;5.024;2022-11-04T05:38:03;100408.72;;;10.20;100.00
58955;BME280;45815;52.334;5.024;2022-11-04T05:40:29;100404.38;;;10.21;100.00
58955;BME280;45815;52.334;5.024;2022-11-04T05:42:56;100405.28;;;10.21;100.00
58955;BME280;45815;52.334;5.024;2022-11-04T05:45:22;100406.97;;;10.16;100.00
58955;BME280;45815;52.334;5.024;2022-11-04T05:47:47;100406.91;;;10.14;100.00
58955;BME280;45815;52.334;5.024;2022-11-04T05:50:12;100416.50;;;10.12;100.00
58955;BME280;45815;52.334;5.024;2022-11-04T05:52:38;100424.34;;;10.11;100.00
58955;BME280;45815;52.334;5.024;2022-11-04T05:55:03;100419.13;;;10.12;100.00
58955;BME280;45815;52.334;5.024;2022-11-04T05:57:29;100434.97;;;10.19;100.00
58955;BME280;45815;52.334;5.024;2022-11-04T05:59:54;100424.38;;;10.12;100.00
58955;BME280;45815;52.334;5.024;2022-11-04T06:02:20;100435.84;;;10.19;100.00
58955;BME280;45815;52.334;5.024;2022-11-04T06:04:45;100442.75;;;10.14;100.00
58955;BME280;45815;52.334;5.024;2022-11-04T06:07:10;100441.06;;;10.16;100.00
58955;BME280;45815;52.334;5.024;2022-11-04T06:09:37;100450.56;;;10.11;100.00
58955;BME280;45815;52.334;5.024;2022-11-04T06:12:10;100451.44;;;10.10;100.00
58955;BME280;45815;52.334;5.024;2022-11-04T06:14:36;100460.22;;;10.12;100.00
58955;BME280;45815;52.334;5.024;2022-11-04T06:17:02;100448.81;;;10.10;100.00
58955;BME280;45815;52.334;5.024;2022-11-04T06:19:28;100436.44;;;10.00;100.00
58955;BME280;45815;52.334;5.024;2022-11-04T06:21:54;100453.16;;;10.08;100.00
58955;BME280;45815;52.334;5.024;2022-11-04T06:24:19;100450.53;;;10.08;100.00
58955;BME280;45815;52.334;5.024;2022-11-04T06:26:44;100448.78;;;10.07;100.00
58955;BME280;45815;52.334;5.024;2022-11-04T06:29:10;100460.06;;;10.03;100.00
58955;BME280;45815;52.334;5.024;2022-11-04T06:31:35;100463.53;;;10.02;100.00
58955;BME280;45815;52.334;5.024;2022-11-04T06:34:01;100449.47;;;9.97;100.00
58955;BME280;45815;52.334;5.024;2022-11-04T06:36:27;100466.19;;;10.03;100.00
58955;BME280;45815;52.334;5.024;2022-11-04T06:38:52;100465.34;;;10.06;100.00
58955;BME280;45815;52.334;5.024;2022-11-04T06:41:21;100467.94;;;10.03;100.00
58955;BME280;45815;52.334;5.024;2022-11-04T06:43:46;100473.19;;;10.04;100.00
58955;BME280;45815;52.334;5.024;2022-11-04T06:48:56;100474.03;;;10.02;100.00
58955;BME280;45815;52.334;5.024;2022-11-04T06:51:22;100486.25;;;10.00;100.00
58955;BME280;45815;52.334;5.024;2022-11-04T06:53:47;100488.88;;;10.00;100.00
58955;BME280;45815;52.334;5.024;2022-11-04T06:56:13;100492.22;;;9.92;100.00
58955;BME280;45815;52.334;5.024;2022-11-04T06:58:39;100502.00;;;10.00;100.00
58955;BME280;45815;52.334;5.024;2022-11-04T07:01:05;100503.78;;;10.04;100.00
58955;BME280;45815;52.334;5.024;2022-11-04T07:03:30;100503.78;;;10.04;100.00
58955;BME280;45815;52.334;5.024;2022-11-04T07:05:55;100507.22;;;10.00;100.00
58955;BME280;45815;52.334;5.024;2022-11-04T07:08:21;100506.25;;;9.93;100.00
58955;BME280;45815;52.334;5.024;2022-11-04T07:10:46;100506.19;;;9.90;100.00
58955;BME280;45815;52.334;5.024;2022-11-04T07:13:12;100498.22;;;9.85;100.00
58955;BME280;45815;52.334;5.024;2022-11-04T07:15:38;100516.72;;;9.93;100.00
58955;BME280;45815;52.334;5.024;2022-11-04T07:18:04;100523.69;;;9.92;100.00
58955;BME280;45815;52.334;5.024;2022-11-04T07:20:32;100529.84;;;9.94;100.00
58955;BME280;45815;52.334;5.024;2022-11-04T07:22:58;100539.50;;;9.96;100.00
58955;BME280;45815;52.334;5.024;2022-11-04T07:25:23;100542.03;;;9.92;100.00
58955;BME280;45815;52.334;5.024;2022-11-04T07:27:49;100548.19;;;9.93;100.00
58955;BME280;45815;52.334;5.024;2022-11-04T07:30:14;100549.97;;;9.96;100.00
58955;BME280;45815;52.334;5.024;2022-11-04T07:32:39;100557.09;;;10.04;100.00
58955;BME280;45815;52.334;5.024;2022-11-04T07:35:05;100557.13;;;10.06;100.00
58955;BME280;45815;52.334;5.024;2022-11-04T07:37:30;100558.16;;;10.14;100.00
58955;BME280;45815;52.334;5.024;2022-11-04T07:39:56;100550.38;;;10.20;100.00
58955;BME280;45815;52.334;5.024;2022-11-04T07:42:21;100559.19;;;10.25;100.00
58955;BME280;45815;52.334;5.024;2022-11-04T07:44:52;100548.69;;;10.25;100.00
58955;BME280;45815;52.334;5.024;2022-11-04T07:47:18;100553.00;;;10.20;100.00
58955;BME280;45815;52.334;5.024;2022-11-04T07:49:43;100563.47;;;10.20;100.00
58955;BME280;45815;52.334;5.024;2022-11-04T07:52:08;100569.59;;;10.19;100.00
58955;BME280;45815;52.334;5.024;2022-11-04T07:54:34;100572.25;;;10.22;100.00
58955;BME280;45815;52.334;5.024;2022-11-04T07:56:59;100571.41;;;10.23;100.00
58955;BME280;45815;52.334;5.024;2022-11-04T07:59:25;100578.41;;;10.24;100.00
58955;BME280;45815;52.334;5.024;2022-11-04T08:01:50;100574.03;;;10.25;100.00
58955;BME280;45815;52.334;5.024;2022-11-04T08:04:16;100579.41;;;10.29;100.00
58955;BME280;45815;52.334;5.024;2022-11-04T08:06:41;100594.34;;;10.33;100.00
58955;BME280;45815;52.334;5.024;2022-11-04T08:09:10;100581.06;;;10.27;100.00
58955;BME280;45815;52.334;5.024;2022-11-04T08:11:35;100605.78;;;10.39;100.00
58955;BME280;45815;52.334;5.024;2022-11-04T08:14:04;100611.06;;;10.40;100.00
58955;BME280;45815;52.334;5.024;2022-11-04T08:16:30;100612.81;;;10.40;100.00
58955;BME280;45815;52.334;5.024;2022-11-04T08:18:55;100613.69;;;10.40;100.00
58955;BME280;45815;52.334;5.024;2022-11-04T08:21:29;100618.94;;;10.40;100.00
58955;BME280;45815;52.334;5.024;2022-11-04T08:23:55;100617.06;;;10.34;100.00
58955;BME280;45815;52.334;5.024;2022-11-04T08:26:21;100629.44;;;10.40;100.00
58955;BME280;45815;52.334;5.024;2022-11-04T08:28:48;100626.88;;;10.45;100.00
58955;BME280;45815;52.334;5.024;2022-11-04T08:31:22;100625.09;;;10.44;100.00
58955;BME280;45815;52.334;5.024;2022-11-04T08:33:49;100621.56;;;10.42;100.00
58955;BME280;45815;52.334;5.024;2022-11-04T08:36:20;100622.31;;;10.34;100.00
58955;BME280;45815;52.334;5.024;2022-11-04T08:38:46;100626.69;;;10.34;100.00
58955;BME280;45815;52.334;5.024;2022-11-04T08:41:14;100621.44;;;10.32;100.00
58955;BME280;45815;52.334;5.024;2022-11-04T08:43:39;100624.94;;;10.33;100.00
58955;BME280;45815;52.334;5.024;2022-11-04T08:46:07;100622.34;;;10.36;100.00
58955;BME280;45815;52.334;5.024;2022-11-04T08:48:34;100625.94;;;10.40;100.00
58955;BME280;45815;52.334;5.024;2022-11-04T08:50:59;100623.28;;;10.38;100.00
58955;BME280;45815;52.334;5.024;2022-11-04T08:53:26;100626.81;;;10.42;100.00
58955;BME280;45815;52.334;5.024;2022-11-04T08:55:52;100612.66;;;10.30;100.00
58955;BME280;45815;52.334;5.024;2022-11-04T08:58:18;100623.19;;;10.33;100.00
58955;BME280;45815;52.334;5.024;2022-11-04T09:00:44;100629.34;;;10.35;100.00
58955;BME280;45815;52.334;5.024;2022-11-04T09:03:09;100630.19;;;10.34;100.00
58955;BME280;45815;52.334;5.024;2022-11-04T09:05:39;100628.56;;;10.40;100.00
58955;BME280;45815;52.334;5.024;2022-11-04T09:08:10;100627.84;;;10.50;100.00
58955;BME280;45815;52.334;5.024;2022-11-04T09:10:40;100629.75;;;10.62;100.00
58955;BME280;45815;52.334;5.024;2022-11-04T09:13:06;100634.28;;;10.70;100.00
58955;BME280;45815;52.334;5.024;2022-11-04T09:15:34;100654.44;;;10.73;100.00
58955;BME280;45815;52.334;5.024;2022-11-04T09:18:00;100640.25;;;10.62;100.00
58955;BME280;45815;52.334;5.024;2022-11-04T09:20:26;100646.56;;;10.74;100.00
58955;BME280;45815;52.334;5.024;2022-11-04T09:22:52;100650.09;;;10.76;100.00
58955;BME280;45815;52.334;5.024;2022-11-04T09:25:18;100648.50;;;10.85;100.00
58955;BME280;45815;52.334;5.024;2022-11-04T09:27:43;100657.31;;;10.90;100.00
58955;BME280;45815;52.334;5.024;2022-11-04T09:30:12;100657.28;;;10.88;100.00
58955;BME280;45815;52.334;5.024;2022-11-04T09:32:37;100662.53;;;10.87;100.00
58955;BME280;45815;52.334;5.024;2022-11-04T09:35:03;100669.56;;;10.89;100.00
58955;BME280;45815;52.334;5.024;2022-11-04T09:37:29;100674.81;;;10.91;100.00
58955;BME280;45815;52.334;5.024;2022-11-04T09:39:54;100677.50;;;10.95;100.00
58955;BME280;45815;52.334;5.024;2022-11-04T09:45:04;100680.16;;;10.95;100.00
58955;BME280;45815;52.334;5.024;2022-11-04T09:47:34;100687.25;;;11.01;100.00
58955;BME280;45815;52.334;5.024;2022-11-04T09:50:01;100696.03;;;11.05;100.00
58955;BME280;45815;52.334;5.024;2022-11-04T09:52:38;100696.94;;;11.07;100.00
58955;BME280;45815;52.334;5.024;2022-11-04T09:57:42;100708.34;;;11.07;100.00
58955;BME280;45815;52.334;5.024;2022-11-04T10:00:14;100721.53;;;11.12;100.00
58955;BME280;45815;52.334;5.024;2022-11-04T10:05:38;100731.31;;;11.20;100.00
58955;BME280;45815;52.334;5.024;2022-11-04T10:08:34;100724.50;;;11.35;100.00
58955;BME280;45815;52.334;5.024;2022-11-04T10:22:06;100720.75;;;11.83;100.00
58955;BME280;45815;52.334;5.024;2022-11-04T10:24:41;100728.66;;;11.86;100.00
58955;BME280;45815;52.334;5.024;2022-11-04T10:27:16;100736.69;;;11.95;100.00
58955;BME280;45815;52.334;5.024;2022-11-04T10:29:44;100748.25;;;12.07;100.00
58955;BME280;45815;52.334;5.024;2022-11-04T10:32:42;100738.56;;;12.06;100.00
58955;BME280;45815;52.334;5.024;2022-11-04T10:35:36;100753.56;;;12.11;100.00
58955;BME280;45815;52.334;5.024;2022-11-04T10:38:23;100746.59;;;12.19;100.00
58955;BME280;45815;52.334;5.024;2022-11-04T10:40:53;100752.03;;;12.32;100.00
58955;BME280;45815;52.334;5.024;2022-11-04T10:43:40;100745.97;;;12.39;100.00
58955;BME280;45815;52.334;5.024;2022-11-04T10:46:41;100759.16;;;12.43;100.00
58955;BME280;45815;52.334;5.024;2022-11-04T10:51:59;100769.81;;;12.56;100.00
58955;BME280;45815;52.334;5.024;2022-11-04T10:54:25;100775.06;;;12.56;100.00
58955;BME280;45815;52.334;5.024;2022-11-04T10:56:55;100774.25;;;12.61;100.00
58955;BME280;45815;52.334;5.024;2022-11-04T11:01:55;100780.47;;;12.71;100.00
58955;BME280;45815;52.334;5.024;2022-11-04T11:04:31;100774.38;;;12.75;100.00
58955;BME280;45815;52.334;5.024;2022-11-04T11:07:02;100771.78;;;12.78;100.00
58955;BME280;45815;52.334;5.024;2022-11-04T11:09:30;100775.34;;;12.83;100.00
58955;BME280;45815;52.334;5.024;2022-11-04T11:14:37;100778.97;;;12.98;100.00
58955;BME280;45815;52.334;5.024;2022-11-04T11:19:56;100777.31;;;13.12;100.00
58955;BME280;45815;52.334;5.024;2022-11-04T11:22:29;100782.66;;;13.24;100.00
58955;BME280;45815;52.334;5.024;2022-11-04T11:27:47;100794.28;;;13.46;100.00
58955;BME280;45815;52.334;5.024;2022-11-04T11:33:01;100800.53;;;13.64;100.00
58955;BME280;45815;52.334;5.024;2022-11-04T11:35:36;100803.97;;;13.49;100.00
58955;BME280;45815;52.334;5.024;2022-11-04T11:38:14;100804.06;;;13.61;100.00
58955;BME280;45815;52.334;5.024;2022-11-04T11:40:43;100792.63;;;13.64;100.00
58955;BME280;45815;52.334;5.024;2022-11-04T11:43:22;100804.94;;;13.66;100.00
58955;BME280;45815;52.334;5.024;2022-11-04T11:45:49;100804.06;;;13.64;100.00
58955;BME280;45815;52.334;5.024;2022-11-04T11:48:37;100811.06;;;13.62;100.00
58955;BME280;45815;52.334;5.024;2022-11-04T11:51:03;100818.16;;;13.69;100.00
58955;BME280;45815;52.334;5.024;2022-11-04T11:53:29;100801.44;;;13.66;100.00
58955;BME280;45815;52.334;5.024;2022-11-04T11:56:35;100805.81;;;13.61;100.00
58955;BME280;45815;52.334;5.024;2022-11-04T11:59:16;100806.66;;;13.60;100.00
58955;BME280;45815;52.334;5.024;2022-11-04T12:01:49;100818.13;;;13.60;100.00
58955;BME280;45815;52.334;5.024;2022-11-04T12:04:18;100811.97;;;13.61;100.00
58955;BME280;45815;52.334;5.024;2022-11-04T12:07:08;100814.53;;;13.52;100.00
58955;BME280;45815;52.334;5.024;2022-11-04T12:15:17;100838.13;;;13.34;100.00
58955;BME280;45815;52.334;5.024;2022-11-04T12:18:01;100841.69;;;13.37;100.00
58955;BME280;45815;52.334;5.024;2022-11-04T12:23:17;100859.06;;;13.17;100.00
58955;BME280;45815;52.334;5.024;2022-11-04T12:29:01;100873.84;;;13.01;100.00
58955;BME280;45815;52.334;5.024;2022-11-04T12:31:44;100880.81;;;12.96;100.00
58955;BME280;45815;52.334;5.024;2022-11-04T12:40:10;100873.56;;;12.75;100.00
58955;BME280;45815;52.334;5.024;2022-11-04T12:45:37;100886.88;;;12.85;100.00
58955;BME280;45815;52.334;5.024;2022-11-04T12:48:11;100883.31;;;12.82;100.00
58955;BME280;45815;52.334;5.024;2022-11-04T12:51:12;100891.19;;;12.80;100.00
58955;BME280;45815;52.334;5.024;2022-11-04T12:54:00;100900.88;;;12.81;100.00
58955;BME280;45815;52.334;5.024;2022-11-04T12:56:37;100901.69;;;12.77;100.00
58955;BME280;45815;52.334;5.024;2022-11-04T13:01:44;100909.63;;;12.79;100.00
58955;BME280;45815;52.334;5.024;2022-11-04T13:07:02;100922.78;;;12.77;100.00
58955;BME280;45815;52.334;5.024;2022-11-04T13:09:40;100935.13;;;12.81;100.00
58955;BME280;45815;52.334;5.024;2022-11-04T13:14:43;100921.91;;;12.80;100.00
58955;BME280;45815;52.334;5.024;2022-11-04T13:17:18;100934.28;;;12.85;100.00
58955;BME280;45815;52.334;5.024;2022-11-04T13:19:52;100936.88;;;12.82;100.00
58955;BME280;45815;52.334;5.024;2022-11-04T13:22:25;100935.94;;;12.77;100.00
58955;BME280;45815;52.334;5.024;2022-11-04T13:25:04;100939.41;;;12.73;100.00
58955;BME280;45815;52.334;5.024;2022-11-04T13:27:51;100936.63;;;12.61;100.00
58955;BME280;45815;52.334;5.024;2022-11-04T13:30:22;100938.38;;;12.60;100.00
58955;BME280;45815;52.334;5.024;2022-11-04T13:32:58;100953.22;;;12.54;100.00
58955;BME280;45815;52.334;5.024;2022-11-04T13:38:18;100950.47;;;12.44;100.00
58955;BME280;45815;52.334;5.024;2022-11-04T13:43:21;100966.25;;;12.44;100.00
58955;BME280;45815;52.334;5.024;2022-11-04T13:48:41;100957.38;;;12.36;100.00
58955;BME280;45815;52.334;5.024;2022-11-04T13:51:16;100965.31;;;12.39;100.00
58955;BME280;45815;52.334;5.024;2022-11-04T13:53:52;100967.91;;;12.36;100.00
58955;BME280;45815;52.334;5.024;2022-11-04T13:56:34;100968.72;;;12.32;100.00
58955;BME280;45815;52.334;5.024;2022-11-04T13:59:25;100964.28;;;12.28;100.00
58955;BME280;45815;52.334;5.024;2022-11-04T14:04:35;100971.25;;;12.26;100.00
58955;BME280;45815;52.334;5.024;2022-11-04T14:07:03;100968.63;;;12.24;100.00
58955;BME280;45815;52.334;5.024;2022-11-04T14:09:34;100987.00;;;12.23;100.00
58955;BME280;45815;52.334;5.024;2022-11-04T14:14:38;100989.63;;;12.20;100.00
58955;BME280;45815;52.334;5.024;2022-11-04T14:25:26;100994.81;;;12.15;100.00
58955;BME280;45815;52.334;5.024;2022-11-04T14:27:54;100995.72;;;12.19;100.00
58955;BME280;45815;52.334;5.024;2022-11-04T14:30:31;100998.34;;;12.19;100.00
58955;BME280;45815;52.334;5.024;2022-11-04T14:33:01;101003.66;;;12.20;100.00
58955;BME280;45815;52.334;5.024;2022-11-04T14:35:28;101002.78;;;12.20;100.00
58955;BME280;45815;52.334;5.024;2022-11-04T14:37:55;101009.69;;;12.15;100.00
58955;BME280;45815;52.334;5.024;2022-11-04T14:40:27;101027.31;;;12.19;100.00
58955;BME280;45815;52.334;5.024;2022-11-04T14:42:53;101031.34;;;11.97;100.00
58955;BME280;45815;52.334;5.024;2022-11-04T14:45:36;101041.25;;;12.15;100.00
58955;BME280;45815;52.334;5.024;2022-11-04T14:48:15;101033.31;;;12.12;100.00
58955;BME280;45815;52.334;5.024;2022-11-04T14:50:44;101049.22;;;12.19;100.00
58955;BME280;45815;52.334;5.024;2022-11-04T14:53:37;101042.16;;;12.15;100.00